Time;durP1;ratioP1;P1;durP2;ratioP2;P2;SDS_P1;SDS_P2;PMS_P1;PMS_P2;Temp;Humidity;BMP_temperature;BMP_pressure;BME280_temperature;BME280_humidity;BME280_pressure;Samples;Min_cycle;Max_cycle;Signal;HPM_P1;HPM_P2
2022/04/29 00:02:05;;;;;;;9.10;3.33;;;;;;;;;;6279506;22;20144;-63
2022/04/29 00:04:31;;;;;;;6.47;3.17;;;;;;;;;;6279593;22;20147;-63
2022/04/29 00:06:57;;;;;;;6.72;3.40;;;;;;;;;;6279364;22;20143;-63
2022/04/29 00:09:23;;;;;;;6.57;3.20;;;;;;;;;;6279104;22;20227;-63
2022/04/29 00:11:50;;;;;;;10.90;3.90;;;;;;;;;;6279449;22;20143;-63
2022/04/29 00:14:16;;;;;;;8.18;3.67;;;;;;;;;;6279533;22;20167;-63
2022/04/29 00:16:42;;;;;;;11.05;3.78;;;;;;;;;;6278948;22;20579;-63
2022/04/29 00:19:08;;;;;;;10.02;4.10;;;;;;;;;;6279265;22;20524;-63
2022/04/29 00:21:34;;;;;;;10.50;3.95;;;;;;;;;;6280852;22;20215;-63
2022/04/29 00:24:00;;;;;;;9.75;3.80;;;;;;;;;;6279237;22;20635;-63
2022/04/29 00:26:26;;;;;;;11.63;4.00;;;;;;;;;;6279463;22;20145;-63
2022/04/29 00:28:52;;;;;;;13.45;4.32;;;;;;;;;;6278985;22;20486;-63
2022/04/29 00:31:18;;;;;;;14.85;4.20;;;;;;;;;;6279419;22;20150;-63
2022/04/29 00:33:44;;;;;;;8.88;4.00;;;;;;;;;;6278957;22;20163;-63
2022/04/29 00:36:10;;;;;;;9.45;3.80;;;;;;;;;;6279315;22;20155;-62
2022/04/29 00:38:35;;;;;;;9.85;4.22;;;;;;;;;;6279123;22;20170;-63
2022/04/29 00:41:01;;;;;;;10.00;4.07;;;;;;;;;;6279376;22;20550;-64
2022/04/29 00:43:27;;;;;;;9.48;4.13;;;;;;;;;;6280034;22;20148;-62
2022/04/29 00:45:53;;;;;;;10.23;4.20;;;;;;;;;;6279373;22;20139;-63
2022/04/29 00:48:19;;;;;;;8.77;4.20;;;;;;;;;;6279288;22;20150;-63
2022/04/29 00:50:45;;;;;;;13.00;4.28;;;;;;;;;;6279275;22;20144;-63
2022/04/29 00:53:12;;;;;;;10.25;4.00;;;;;;;;;;6279377;22;20163;-63
2022/04/29 00:55:44;;;;;;;10.10;4.10;;;;;;;;;;6279419;22;20591;-63
2022/04/29 00:58:13;;;;;;;10.85;3.90;;;;;;;;;;6279119;22;20143;-62
2022/04/29 01:00:39;;;;;;;10.20;3.65;;;;;;;;;;6278918;22;20139;-63
2022/04/29 01:03:05;;;;;;;8.80;3.67;;;;;;;;;;6278796;22;20219;-63
2022/04/29 01:05:33;;;;;;;7.93;3.55;;;;;;;;;;6279022;22;20225;-62
2022/04/29 01:07:59;;;;;;;5.45;3.42;;;;;;;;;;6279136;22;20545;-63
2022/04/29 01:10:25;;;;;;;8.20;3.90;;;;;;;;;;6278813;22;20159;-61
2022/04/29 01:12:55;;;;;;;10.00;3.70;;;;;;;;;;6278904;22;20425;-62
2022/04/29 01:15:22;;;;;;;9.00;4.15;;;;;;;;;;6279009;22;20151;-62
2022/04/29 01:17:49;;;;;;;10.45;4.00;;;;;;;;;;6279320;22;20136;-62
2022/04/29 01:20:20;;;;;;;14.45;4.45;;;;;;;;;;6279226;22;20178;-63
2022/04/29 01:22:46;;;;;;;13.60;4.20;;;;;;;;;;6279705;22;20182;-63
2022/04/29 01:25:13;;;;;;;10.18;3.97;;;;;;;;;;6279429;22;20139;-63
2022/04/29 01:27:39;;;;;;;7.00;3.70;;;;;;;;;;6279475;22;20227;-61
2022/04/29 01:30:11;;;;;;;8.88;3.83;;;;;;;;;;6278514;22;20217;-63
2022/04/29 01:32:37;;;;;;;10.13;4.32;;;;;;;;;;6278706;22;20436;-63
2022/04/29 01:35:04;;;;;;;12.13;4.05;;;;;;;;;;6251959;22;20175;-62
2022/04/29 01:37:30;;;;;;;11.80;4.07;;;;;;;;;;6278425;22;20140;-63
2022/04/29 01:39:56;;;;;;;9.80;4.10;;;;;;;;;;6278392;22;20172;-62
2022/04/29 01:42:22;;;;;;;10.88;4.25;;;;;;;;;;6278539;22;20224;-62
2022/04/29 01:44:48;;;;;;;7.03;3.53;;;;;;;;;;6278848;22;20201;-63
2022/04/29 01:47:14;;;;;;;13.13;4.25;;;;;;;;;;6278444;22;20154;-63
2022/04/29 01:49:40;;;;;;;10.63;4.20;;;;;;;;;;6278233;22;20154;-62
2022/04/29 01:52:06;;;;;;;9.43;3.58;;;;;;;;;;6277625;22;20208;-63
2022/04/29 01:54:33;;;;;;;7.72;4.00;;;;;;;;;;6277981;22;20174;-62
2022/04/29 01:56:58;;;;;;;14.18;4.40;;;;;;;;;;6277983;22;20135;-63
2022/04/29 01:59:25;;;;;;;7.32;3.40;;;;;;;;;;6279273;22;20139;-63
2022/04/29 02:01:50;;;;;;;12.77;4.22;;;;;;;;;;6280455;22;20170;-63
2022/04/29 02:04:16;;;;;;;10.95;3.90;;;;;;;;;;6293486;22;20159;-63
2022/04/29 02:06:42;;;;;;;10.05;4.10;;;;;;;;;;6283818;22;20147;-63
2022/04/29 02:09:09;;;;;;;12.55;4.82;;;;;;;;;;6278783;22;20139;-63
2022/04/29 02:11:35;;;;;;;12.18;3.83;;;;;;;;;;6278903;22;20201;-62
2022/04/29 02:14:01;;;;;;;8.35;3.78;;;;;;;;;;6279095;22;20221;-62
2022/04/29 02:16:27;;;;;;;12.57;3.63;;;;;;;;;;6278789;22;20140;-62
2022/04/29 02:18:53;;;;;;;8.60;3.58;;;;;;;;;;6278766;22;20627;-62
2022/04/29 02:21:19;;;;;;;7.70;3.70;;;;;;;;;;6279133;22;20164;-62
2022/04/29 02:23:46;;;;;;;9.00;4.15;;;;;;;;;;6279131;22;20448;-62
2022/04/29 02:26:12;;;;;;;9.23;4.07;;;;;;;;;;6279161;22;20170;-62
2022/04/29 02:28:37;;;;;;;12.43;4.35;;;;;;;;;;6279424;22;20622;-62
2022/04/29 02:31:04;;;;;;;12.25;4.25;;;;;;;;;;6279156;22;20169;-62
2022/04/29 02:33:30;;;;;;;11.43;4.07;;;;;;;;;;6278621;22;20240;-62
2022/04/29 02:35:56;;;;;;;12.43;3.72;;;;;;;;;;6278479;22;20249;-62
2022/04/29 02:38:23;;;;;;;11.02;4.50;;;;;;;;;;6279279;22;20217;-62
2022/04/29 02:40:51;;;;;;;10.50;3.78;;;;;;;;;;6278872;22;20444;-62
2022/04/29 02:43:20;;;;;;;6.22;3.80;;;;;;;;;;6278444;22;20153;-62
2022/04/29 02:45:47;;;;;;;11.07;4.30;;;;;;;;;;6278478;22;20144;-62
2022/04/29 02:48:12;;;;;;;11.02;4.38;;;;;;;;;;6278551;22;20575;-62
2022/04/29 02:50:38;;;;;;;14.15;4.20;;;;;;;;;;6278677;22;20151;-62
2022/04/29 02:53:04;;;;;;;9.65;4.15;;;;;;;;;;6278753;22;20190;-62
2022/04/29 02:55:30;;;;;;;12.10;4.38;;;;;;;;;;6252009;22;20159;-62
2022/04/29 02:57:56;;;;;;;10.52;4.15;;;;;;;;;;6278652;22;20555;-62
2022/04/29 03:00:22;;;;;;;7.85;4.47;;;;;;;;;;6251901;22;20209;-62
2022/04/29 03:02:48;;;;;;;10.95;4.38;;;;;;;;;;6278859;22;20163;-62
2022/04/29 03:05:14;;;;;;;8.98;4.28;;;;;;;;;;6279143;22;20210;-62
2022/04/29 03:07:40;;;;;;;16.23;4.82;;;;;;;;;;6279013;22;20400;-62
2022/04/29 03:10:06;;;;;;;9.30;3.80;;;;;;;;;;6278821;22;20140;-62
2022/04/29 03:12:32;;;;;;;15.52;4.40;;;;;;;;;;6278765;22;20147;-62
2022/04/29 03:15:15;;;;;;;8.98;4.00;;;;;;;;;;6280442;22;20549;-62
2022/04/29 03:20:26;;;;;;;10.18;4.60;;;;;;;;;;6280992;22;20236;-62
2022/04/29 03:22:52;;;;;;;10.02;4.55;;;;;;;;;;6280712;22;20166;-62
2022/04/29 03:25:18;;;;;;;14.85;4.43;;;;;;;;;;6280456;22;20190;-62
2022/04/29 03:27:44;;;;;;;12.60;4.22;;;;;;;;;;6280444;22;20475;-62
2022/04/29 03:30:10;;;;;;;11.27;4.63;;;;;;;;;;6279665;22;20156;-62
2022/04/29 03:32:36;;;;;;;10.40;5.22;;;;;;;;;;6279997;22;20136;-62
2022/04/29 03:35:02;;;;;;;11.05;4.70;;;;;;;;;;6280725;22;20313;-62
2022/04/29 03:37:28;;;;;;;10.93;5.32;;;;;;;;;;6281358;22;20487;-62
2022/04/29 03:39:54;;;;;;;12.32;5.30;;;;;;;;;;6281768;22;20171;-62
2022/04/29 03:42:21;;;;;;;11.35;5.63;;;;;;;;;;6280843;22;20151;-62
2022/04/29 03:44:46;;;;;;;11.32;4.90;;;;;;;;;;6280835;22;20158;-62
2022/04/29 03:47:12;;;;;;;12.35;5.53;;;;;;;;;;6280269;22;20447;-63
2022/04/29 03:49:38;;;;;;;12.57;5.45;;;;;;;;;;6280439;22;20144;-62
2022/04/29 03:52:05;;;;;;;11.48;5.30;;;;;;;;;;6262874;22;20190;-62
2022/04/29 03:56:58;;;;;;;9.70;5.20;;;;;;;;;;6269971;22;20198;-61
2022/04/29 03:59:24;;;;;;;15.07;5.40;;;;;;;;;;6255493;22;20191;-62
2022/04/29 04:04:16;;;;;;;13.52;5.85;;;;;;;;;;6254623;22;20412;-62
2022/04/29 04:06:50;;;;;;;10.52;5.60;;;;;;;;;;6256288;22;20187;-62
2022/04/29 04:11:49;;;;;;;13.65;6.57;;;;;;;;;;6263501;22;20253;-62
2022/04/29 04:14:17;;;;;;;14.35;5.97;;;;;;;;;;6261591;22;20192;-62
2022/04/29 04:16:42;;;;;;;16.65;6.28;;;;;;;;;;6263751;22;20202;-62
2022/04/29 04:19:09;;;;;;;14.40;7.22;;;;;;;;;;6262361;22;20608;-62
2022/04/29 04:21:35;;;;;;;13.82;6.75;;;;;;;;;;6249590;23;20151;-62
2022/04/29 04:24:01;;;;;;;13.90;6.72;;;;;;;;;;6250197;23;20411;-62
2022/04/29 04:26:26;;;;;;;14.93;6.78;;;;;;;;;;6250185;23;20438;-61
2022/04/29 04:28:52;;;;;;;13.15;6.35;;;;;;;;;;6250294;23;20163;-61
2022/04/29 04:31:21;;;;;;;11.48;6.75;;;;;;;;;;6249436;23;20136;-63
2022/04/29 04:33:47;;;;;;;10.85;6.32;;;;;;;;;;6248970;23;20172;-62
2022/04/29 04:36:13;;;;;;;15.45;7.35;;;;;;;;;;6249594;23;20366;-63
2022/04/29 04:38:39;;;;;;;12.35;6.18;;;;;;;;;;6249804;23;20224;-64
2022/04/29 04:41:05;;;;;;;14.23;7.25;;;;;;;;;;6249824;23;20167;-63
2022/04/29 04:43:31;;;;;;;13.20;6.05;;;;;;;;;;6249293;23;20145;-63
2022/04/29 04:45:57;;;;;;;10.68;6.30;;;;;;;;;;6248882;23;20198;-63
2022/04/29 04:48:23;;;;;;;14.70;6.72;;;;;;;;;;6249704;23;20449;-63
2022/04/29 04:50:48;;;;;;;11.90;6.40;;;;;;;;;;6249375;23;20146;-63
2022/04/29 04:53:14;;;;;;;16.33;6.43;;;;;;;;;;6248841;23;20258;-63
2022/04/29 04:55:40;;;;;;;15.15;6.38;;;;;;;;;;6249064;23;20144;-63
2022/04/29 04:58:08;;;;;;;11.05;6.07;;;;;;;;;;6249357;23;20190;-63
2022/04/29 05:00:34;;;;;;;13.88;6.40;;;;;;;;;;6249202;23;20205;-63
2022/04/29 05:02:59;;;;;;;11.27;5.88;;;;;;;;;;6249193;23;20590;-63
2022/04/29 05:05:25;;;;;;;13.93;5.45;;;;;;;;;;6248905;23;20270;-63
2022/04/29 05:07:51;;;;;;;16.88;6.00;;;;;;;;;;6248641;23;20137;-63
2022/04/29 05:10:18;;;;;;;14.90;6.30;;;;;;;;;;6248423;23;20141;-63
2022/04/29 05:12:45;;;;;;;11.52;5.57;;;;;;;;;;6249050;23;20144;-63
2022/04/29 05:15:12;;;;;;;13.80;6.10;;;;;;;;;;6249153;23;20467;-63
2022/04/29 05:17:41;;;;;;;11.48;5.95;;;;;;;;;;6249066;23;20136;-63
2022/04/29 05:20:07;;;;;;;11.32;5.95;;;;;;;;;;6248797;23;20157;-63
2022/04/29 05:22:33;;;;;;;11.80;6.57;;;;;;;;;;6248407;23;20137;-63
2022/04/29 05:24:59;;;;;;;9.88;5.65;;;;;;;;;;6248564;23;20140;-63
2022/04/29 05:27:25;;;;;;;14.60;5.82;;;;;;;;;;6249057;23;20144;-63
2022/04/29 05:29:51;;;;;;;11.20;5.82;;;;;;;;;;6248729;23;20144;-63
2022/04/29 05:32:17;;;;;;;12.65;6.15;;;;;;;;;;6248674;23;20563;-63
2022/04/29 05:34:44;;;;;;;20.20;6.05;;;;;;;;;;6248841;23;20175;-63
2022/04/29 05:37:10;;;;;;;11.57;5.50;;;;;;;;;;6247928;23;20140;-63
2022/04/29 05:42:23;;;;;;;14.80;5.75;;;;;;;;;;6248540;23;20143;-63
2022/04/29 05:44:49;;;;;;;12.23;5.70;;;;;;;;;;6249452;23;20144;-63
2022/04/29 05:47:15;;;;;;;10.95;5.78;;;;;;;;;;6249263;23;20148;-63
2022/04/29 05:49:41;;;;;;;8.07;5.43;;;;;;;;;;6248938;23;20251;-63
2022/04/29 05:52:07;;;;;;;13.23;6.10;;;;;;;;;;6248793;23;20227;-63
2022/04/29 05:54:33;;;;;;;13.20;5.93;;;;;;;;;;6248624;23;20665;-63
2022/04/29 05:57:00;;;;;;;15.20;6.07;;;;;;;;;;6248310;23;20141;-63
2022/04/29 05:59:26;;;;;;;14.52;6.20;;;;;;;;;;6248818;23;20209;-63
2022/04/29 06:01:52;;;;;;;15.18;6.22;;;;;;;;;;6248962;23;20219;-63
2022/04/29 06:04:17;;;;;;;18.67;6.38;;;;;;;;;;6249186;23;20500;-63
2022/04/29 06:06:43;;;;;;;18.00;7.25;;;;;;;;;;6248473;23;20151;-63
2022/04/29 06:09:09;;;;;;;16.00;6.50;;;;;;;;;;6249050;23;20141;-63
2022/04/29 06:11:35;;;;;;;12.73;6.72;;;;;;;;;;6248528;23;20218;-63
2022/04/29 06:14:01;;;;;;;11.18;5.72;;;;;;;;;;6248713;23;20168;-63
2022/04/29 06:16:27;;;;;;;15.38;6.40;;;;;;;;;;6248570;23;20144;-63
2022/04/29 06:18:53;;;;;;;10.70;6.68;;;;;;;;;;6248726;23;20577;-63
2022/04/29 06:21:19;;;;;;;11.23;6.10;;;;;;;;;;6248643;23;20140;-63
2022/04/29 06:23:45;;;;;;;13.25;7.43;;;;;;;;;;6248781;23;20172;-63
2022/04/29 06:26:12;;;;;;;14.55;6.82;;;;;;;;;;6248778;23;20502;-63
2022/04/29 06:28:38;;;;;;;13.02;6.72;;;;;;;;;;6248996;23;20145;-63
2022/04/29 06:31:04;;;;;;;10.98;6.13;;;;;;;;;;6248672;23;20145;-63
2022/04/29 06:33:33;;;;;;;12.73;6.88;;;;;;;;;;6247712;23;20579;-63
2022/04/29 06:35:59;;;;;;;15.25;7.45;;;;;;;;;;6248789;23;20587;-63
2022/04/29 06:38:26;;;;;;;13.52;6.50;;;;;;;;;;6248624;23;20178;-63
2022/04/29 06:40:55;;;;;;;11.60;6.82;;;;;;;;;;6248693;23;20447;-63
2022/04/29 06:43:22;;;;;;;11.52;6.60;;;;;;;;;;6248274;23;20181;-63
2022/04/29 06:45:48;;;;;;;10.00;6.20;;;;;;;;;;6248424;23;20495;-63
2022/04/29 06:48:14;;;;;;;13.80;7.03;;;;;;;;;;6247939;23;20140;-63
2022/04/29 06:50:40;;;;;;;13.13;6.72;;;;;;;;;;6249951;23;20144;-63
2022/04/29 06:53:06;;;;;;;14.18;6.65;;;;;;;;;;6249806;23;20145;-63
2022/04/29 06:55:32;;;;;;;17.65;7.45;;;;;;;;;;6250010;23;20147;-63
2022/04/29 06:57:58;;;;;;;14.32;7.00;;;;;;;;;;6249547;23;20137;-63
2022/04/29 07:00:24;;;;;;;13.13;6.50;;;;;;;;;;6249766;23;20151;-63
2022/04/29 07:02:51;;;;;;;13.90;7.10;;;;;;;;;;6249775;23;20560;-63
2022/04/29 07:05:17;;;;;;;12.45;7.05;;;;;;;;;;6250392;23;20144;-64
2022/04/29 07:07:43;;;;;;;15.88;7.13;;;;;;;;;;6249530;23;20150;-63
2022/04/29 07:10:09;;;;;;;12.88;6.80;;;;;;;;;;6250011;23;20171;-63
2022/04/29 07:12:48;;;;;;;11.23;6.63;;;;;;;;;;6249588;23;20206;-64
2022/04/29 07:15:14;;;;;;;10.95;6.55;;;;;;;;;;6249250;23;20221;-63
2022/04/29 07:17:41;;;;;;;13.30;7.03;;;;;;;;;;6249071;23;20315;-63
2022/04/29 07:20:07;;;;;;;9.65;5.95;;;;;;;;;;6249651;23;20453;-63
2022/04/29 07:22:33;;;;;;;11.02;6.53;;;;;;;;;;6249528;23;20171;-63
2022/04/29 07:24:59;;;;;;;11.38;6.57;;;;;;;;;;6248994;23;20559;-63
2022/04/29 07:27:28;;;;;;;10.80;5.80;;;;;;;;;;6249672;23;20147;-63
2022/04/29 07:29:54;;;;;;;9.95;6.30;;;;;;;;;;6249547;23;20148;-63
2022/04/29 07:32:20;;;;;;;13.02;6.20;;;;;;;;;;6248755;23;20679;-63
2022/04/29 07:42:59;;;;;;;13.25;6.50;;;;;;;;;;6248686;23;20139;-63
2022/04/29 07:45:25;;;;;;;12.70;5.68;;;;;;;;;;6248610;23;20164;-63
2022/04/29 07:47:52;;;;;;;9.60;5.85;;;;;;;;;;6249519;23;20437;-63
2022/04/29 07:50:18;;;;;;;12.43;5.72;;;;;;;;;;6249109;23;20219;-63
2022/04/29 07:52:44;;;;;;;12.18;6.10;;;;;;;;;;6249288;23;20147;-63
2022/04/29 07:55:11;;;;;;;9.27;5.45;;;;;;;;;;6249570;23;20163;-63
2022/04/29 07:57:37;;;;;;;11.68;5.43;;;;;;;;;;6248940;23;20274;-63
2022/04/29 08:00:04;;;;;;;10.77;5.68;;;;;;;;;;6248160;23;20170;-63
2022/04/29 08:02:30;;;;;;;9.55;5.50;;;;;;;;;;6249137;23;20418;-63
2022/04/29 08:04:56;;;;;;;8.35;5.70;;;;;;;;;;6248935;23;20170;-64
2022/04/29 08:07:22;;;;;;;9.65;5.80;;;;;;;;;;6249755;23;20150;-63
2022/04/29 08:09:48;;;;;;;10.57;6.05;;;;;;;;;;6249460;23;20140;-63
2022/04/29 08:12:14;;;;;;;13.35;6.15;;;;;;;;;;6249079;23;20147;-63
2022/04/29 08:14:40;;;;;;;10.35;5.97;;;;;;;;;;6249547;23;20168;-63
2022/04/29 08:17:06;;;;;;;11.80;6.40;;;;;;;;;;6249216;23;20468;-63
2022/04/29 08:19:33;;;;;;;8.52;6.05;;;;;;;;;;6249295;23;20240;-65
2022/04/29 08:21:59;;;;;;;11.25;6.07;;;;;;;;;;6249848;23;20145;-62
2022/04/29 08:24:26;;;;;;;9.73;5.97;;;;;;;;;;6248853;23;20205;-62
2022/04/29 08:26:52;;;;;;;10.48;6.72;;;;;;;;;;6249075;23;20145;-62
2022/04/29 08:29:18;;;;;;;13.98;6.35;;;;;;;;;;6248360;22;20174;-63
2022/04/29 08:31:44;;;;;;;10.63;6.32;;;;;;;;;;6248130;23;20147;-64
2022/04/29 08:34:10;;;;;;;12.27;6.22;;;;;;;;;;6247993;23;20164;-62
2022/04/29 08:36:36;;;;;;;10.57;5.75;;;;;;;;;;6248511;23;20171;-63
2022/04/29 08:39:02;;;;;;;9.63;5.75;;;;;;;;;;6248099;23;20602;-64
2022/04/29 08:41:27;;;;;;;13.23;6.07;;;;;;;;;;6247978;23;20147;-64
2022/04/29 08:43:54;;;;;;;11.85;6.07;;;;;;;;;;6249249;23;20278;-63
2022/04/29 08:46:21;;;;;;;9.00;5.57;;;;;;;;;;6248175;23;20151;-63
2022/04/29 08:48:48;;;;;;;13.18;5.68;;;;;;;;;;6248266;23;20141;-63
2022/04/29 08:51:14;;;;;;;7.95;5.63;;;;;;;;;;6249027;23;20356;-63
2022/04/29 08:53:40;;;;;;;10.15;5.40;;;;;;;;;;6247974;23;20191;-63
2022/04/29 08:58:52;;;;;;;10.52;5.90;;;;;;;;;;6248013;23;20440;-63
2022/04/29 09:01:20;;;;;;;13.00;6.00;;;;;;;;;;6248564;23;20527;-63
2022/04/29 09:03:46;;;;;;;12.43;5.97;;;;;;;;;;6247414;23;20144;-63
2022/04/29 09:06:17;;;;;;;13.00;5.70;;;;;;;;;;6247989;23;20144;-63
2022/04/29 09:08:43;;;;;;;16.30;6.22;;;;;;;;;;6247691;23;20140;-63
2022/04/29 09:11:10;;;;;;;10.98;6.22;;;;;;;;;;6247228;23;20144;-63
2022/04/29 09:13:37;;;;;;;10.52;5.82;;;;;;;;;;6246962;23;20168;-62
2022/04/29 09:16:07;;;;;;;11.38;6.32;;;;;;;;;;6247200;23;20179;-64
2022/04/29 09:18:34;;;;;;;7.68;5.72;;;;;;;;;;6247358;23;20215;-63
2022/04/29 09:21:01;;;;;;;12.73;6.38;;;;;;;;;;6247513;23;20564;-64
2022/04/29 09:23:30;;;;;;;11.35;5.88;;;;;;;;;;6247722;23;20553;-63
2022/04/29 09:25:59;;;;;;;13.20;6.20;;;;;;;;;;6247906;23;20379;-63
2022/04/29 09:28:25;;;;;;;12.35;6.20;;;;;;;;;;6247634;23;20201;-63
2022/04/29 09:30:58;;;;;;;10.77;6.45;;;;;;;;;;6247511;23;20155;-63
2022/04/29 09:33:25;;;;;;;9.90;6.03;;;;;;;;;;6247911;23;20226;-63
2022/04/29 09:35:51;;;;;;;13.23;5.80;;;;;;;;;;6247631;23;20151;-64
2022/04/29 09:41:03;;;;;;;9.48;5.85;;;;;;;;;;6247220;23;20139;-63
2022/04/29 09:43:35;;;;;;;10.18;5.80;;;;;;;;;;6247147;23;20212;-64
2022/04/29 09:46:10;;;;;;;11.68;5.88;;;;;;;;;;6246883;23;20592;-63
2022/04/29 09:48:55;;;;;;;11.20;6.25;;;;;;;;;;6247067;23;20155;-63
2022/04/29 09:51:39;;;;;;;17.70;6.55;;;;;;;;;;6248118;23;20467;-63
2022/04/29 09:54:09;;;;;;;9.93;5.65;;;;;;;;;;6246604;23;20168;-62
2022/04/29 09:56:35;;;;;;;13.15;6.78;;;;;;;;;;6247095;23;20144;-63
2022/04/29 09:59:01;;;;;;;10.82;6.10;;;;;;;;;;6246971;23;20147;-63
2022/04/29 10:01:28;;;;;;;7.05;5.53;;;;;;;;;;6246564;23;20158;-62
2022/04/29 10:03:54;;;;;;;13.25;6.88;;;;;;;;;;6246506;23;20144;-62
2022/04/29 10:06:21;;;;;;;11.98;6.75;;;;;;;;;;6246710;23;20170;-62
2022/04/29 10:08:48;;;;;;;7.95;6.35;;;;;;;;;;6246959;23;20480;-62
2022/04/29 10:11:14;;;;;;;13.10;6.55;;;;;;;;;;6246932;23;20443;-62
2022/04/29 10:13:40;;;;;;;9.48;5.88;;;;;;;;;;6246200;23;20168;-63
2022/04/29 10:16:07;;;;;;;16.42;6.68;;;;;;;;;;6246959;23;20554;-62
2022/04/29 10:21:21;;;;;;;8.98;6.20;;;;;;;;;;6246461;23;20535;-62
2022/04/29 10:23:51;;;;;;;10.93;6.38;;;;;;;;;;6245966;23;20140;-63
2022/04/29 10:26:20;;;;;;;12.15;6.72;;;;;;;;;;6246047;23;20148;-63
2022/04/29 10:28:47;;;;;;;14.27;6.50;;;;;;;;;;6246212;23;20427;-63
2022/04/29 10:31:17;;;;;;;12.30;6.80;;;;;;;;;;6245865;23;20238;-63
2022/04/29 10:33:43;;;;;;;11.07;6.85;;;;;;;;;;6246128;23;20164;-62
2022/04/29 10:36:10;;;;;;;8.70;6.10;;;;;;;;;;6246087;23;20610;-63
2022/04/29 10:38:38;;;;;;;9.70;5.93;;;;;;;;;;6246549;23;20198;-63
2022/04/29 10:41:07;;;;;;;8.95;5.85;;;;;;;;;;6246513;23;20140;-63
2022/04/29 10:43:37;;;;;;;10.48;6.35;;;;;;;;;;6246198;23;20206;-63
2022/04/29 10:46:07;;;;;;;8.85;5.43;;;;;;;;;;6246615;23;20148;-63
2022/04/29 10:48:36;;;;;;;10.38;5.47;;;;;;;;;;6246347;23;20171;-63
2022/04/29 10:51:09;;;;;;;11.30;4.93;;;;;;;;;;6246120;23;20215;-63
2022/04/29 10:53:40;;;;;;;8.50;4.97;;;;;;;;;;6246131;23;20218;-63
2022/04/29 10:56:25;;;;;;;8.55;4.38;;;;;;;;;;6246799;23;20151;-63
2022/04/29 10:58:51;;;;;;;8.27;4.05;;;;;;;;;;6246272;23;20148;-63
2022/04/29 11:01:17;;;;;;;7.70;4.28;;;;;;;;;;6246608;23;20136;-63
2022/04/29 11:03:46;;;;;;;6.55;3.95;;;;;;;;;;6246821;23;20140;-63
2022/04/29 11:06:13;;;;;;;8.05;4.30;;;;;;;;;;6246588;23;20168;-63
2022/04/29 11:08:39;;;;;;;5.45;4.00;;;;;;;;;;6260116;23;20618;-63
2022/04/29 11:11:06;;;;;;;6.57;3.67;;;;;;;;;;6249821;23;20152;-63
2022/04/29 11:13:35;;;;;;;6.80;4.25;;;;;;;;;;6246690;23;20172;-64
2022/04/29 11:16:11;;;;;;;4.88;3.53;;;;;;;;;;6246186;23;20472;-63
2022/04/29 11:18:37;;;;;;;6.63;4.03;;;;;;;;;;6246392;23;20202;-63
2022/04/29 11:26:50;;;;;;;5.75;4.00;;;;;;;;;;6246134;23;20210;-63
2022/04/29 11:29:17;;;;;;;8.52;4.55;;;;;;;;;;6246710;23;20144;-63
2022/04/29 11:31:43;;;;;;;6.75;4.00;;;;;;;;;;6246220;23;20148;-63
2022/04/29 11:34:10;;;;;;;8.65;4.30;;;;;;;;;;6246018;23;20461;-63
2022/04/29 11:36:36;;;;;;;7.82;4.60;;;;;;;;;;6248074;23;20140;-63
2022/04/29 11:39:08;;;;;;;6.35;4.05;;;;;;;;;;6247908;23;20136;-63
2022/04/29 11:41:33;;;;;;;11.25;5.55;;;;;;;;;;6247874;23;20128;-63
2022/04/29 11:44:02;;;;;;;8.32;4.57;;;;;;;;;;6248434;23;20171;-63
2022/04/29 11:46:27;;;;;;;9.57;4.20;;;;;;;;;;6248098;23;20159;-63
2022/04/29 11:48:55;;;;;;;9.73;4.45;;;;;;;;;;6248118;23;20219;-62
2022/04/29 11:51:22;;;;;;;6.93;4.60;;;;;;;;;;6248703;23;20160;-63
2022/04/29 11:53:55;;;;;;;6.53;4.32;;;;;;;;;;6248428;23;20568;-63
2022/04/29 11:56:21;;;;;;;7.97;4.50;;;;;;;;;;6248001;23;20147;-63
2022/04/29 11:58:47;;;;;;;9.02;5.20;;;;;;;;;;6247734;23;20141;-63
2022/04/29 12:01:15;;;;;;;7.40;4.85;;;;;;;;;;6248115;23;20140;-63
2022/04/29 12:03:46;;;;;;;6.88;4.60;;;;;;;;;;6248019;23;20187;-63
2022/04/29 12:06:12;;;;;;;6.15;4.43;;;;;;;;;;6248312;23;20141;-63
2022/04/29 12:08:39;;;;;;;9.13;4.82;;;;;;;;;;6247725;23;20154;-63
2022/04/29 12:11:05;;;;;;;7.45;4.47;;;;;;;;;;6247527;23;20155;-63
2022/04/29 12:13:30;;;;;;;8.48;3.70;;;;;;;;;;6247735;23;20454;-63
2022/04/29 12:15:57;;;;;;;5.95;3.80;;;;;;;;;;6247755;23;20137;-63
2022/04/29 12:18:37;;;;;;;7.30;4.00;;;;;;;;;;6248465;23;20141;-63
2022/04/29 12:21:04;;;;;;;4.63;3.55;;;;;;;;;;6217456;23;20133;-62
2022/04/29 12:23:33;;;;;;;6.50;3.40;;;;;;;;;;6217653;23;20153;-63
2022/04/29 12:26:02;;;;;;;6.00;3.85;;;;;;;;;;6217402;23;20540;-62
2022/04/29 12:28:29;;;;;;;6.38;3.65;;;;;;;;;;6217852;23;20156;-63
2022/04/29 12:36:59;;;;;;;10.15;3.97;;;;;;;;;;6217885;23;20137;-62
2022/04/29 12:39:25;;;;;;;7.57;3.70;;;;;;;;;;6218331;23;20153;-62
2022/04/29 12:42:01;;;;;;;7.32;4.20;;;;;;;;;;6217602;23;20207;-62
2022/04/29 12:47:24;;;;;;;8.35;3.47;;;;;;;;;;6216911;23;20148;-63
2022/04/29 12:49:51;;;;;;;5.18;3.15;;;;;;;;;;6217033;23;20156;-63
2022/04/29 12:52:17;;;;;;;4.45;3.22;;;;;;;;;;6217281;23;20149;-63
2022/04/29 12:54:43;;;;;;;7.18;3.80;;;;;;;;;;6217469;23;20172;-64
2022/04/29 12:57:09;;;;;;;7.30;3.20;;;;;;;;;;6216749;23;20165;-63
2022/04/29 12:59:38;;;;;;;5.22;2.58;;;;;;;;;;6217155;23;20149;-63
2022/04/29 13:02:05;;;;;;;4.65;2.50;;;;;;;;;;6217356;23;20137;-62
2022/04/29 13:04:31;;;;;;;3.63;2.55;;;;;;;;;;6217366;23;20467;-63
2022/04/29 13:06:57;;;;;;;6.30;2.67;;;;;;;;;;6216969;23;20141;-62
2022/04/29 13:09:25;;;;;;;4.72;2.33;;;;;;;;;;6217415;23;20149;-63
2022/04/29 13:11:51;;;;;;;3.15;2.17;;;;;;;;;;6217125;23;20435;-63
2022/04/29 13:14:17;;;;;;;3.33;2.50;;;;;;;;;;6216695;23;20165;-62
2022/04/29 13:16:44;;;;;;;8.00;2.17;;;;;;;;;;6217092;23;20144;-62
2022/04/29 13:19:11;;;;;;;5.13;2.55;;;;;;;;;;6226623;23;20187;-62
2022/04/29 13:21:36;;;;;;;3.83;2.38;;;;;;;;;;6247377;23;20140;-63
2022/04/29 13:24:03;;;;;;;6.35;3.00;;;;;;;;;;6247389;23;20141;-63
2022/04/29 13:26:31;;;;;;;5.43;2.55;;;;;;;;;;6247872;23;20219;-63
2022/04/29 13:28:57;;;;;;;4.95;2.42;;;;;;;;;;6247453;23;20156;-63
2022/04/29 13:31:23;;;;;;;4.55;2.50;;;;;;;;;;6247844;23;20140;-63
2022/04/29 13:33:49;;;;;;;4.50;2.63;;;;;;;;;;6247073;23;20225;-63
2022/04/29 13:36:16;;;;;;;5.57;2.40;;;;;;;;;;6247043;23;20140;-63
2022/04/29 13:38:41;;;;;;;3.75;2.35;;;;;;;;;;6247045;23;20422;-63
2022/04/29 13:41:08;;;;;;;4.35;2.58;;;;;;;;;;6247180;23;20144;-63
2022/04/29 13:43:34;;;;;;;6.70;2.35;;;;;;;;;;6247105;23;20168;-63
2022/04/29 13:46:03;;;;;;;5.15;2.40;;;;;;;;;;6247342;23;20623;-64
2022/04/29 13:48:29;;;;;;;3.58;2.10;;;;;;;;;;6247022;23;20178;-63
2022/04/29 13:50:55;;;;;;;7.13;2.60;;;;;;;;;;6247193;23;20159;-62
2022/04/29 13:53:21;;;;;;;2.90;2.03;;;;;;;;;;6246911;23;20144;-63
2022/04/29 13:55:50;;;;;;;3.95;2.10;;;;;;;;;;6246940;23;20136;-63
2022/04/29 13:58:17;;;;;;;3.13;2.10;;;;;;;;;;6246657;23;20172;-63
2022/04/29 14:00:43;;;;;;;6.45;2.50;;;;;;;;;;6246616;23;20168;-62
2022/04/29 14:03:10;;;;;;;7.55;2.72;;;;;;;;;;6246985;23;20148;-62
2022/04/29 14:05:36;;;;;;;5.82;2.38;;;;;;;;;;6246896;23;20137;-62
2022/04/29 14:08:02;;;;;;;3.38;2.33;;;;;;;;;;6246652;23;20143;-62
2022/04/29 14:10:28;;;;;;;4.13;2.35;;;;;;;;;;6246490;23;20136;-62
2022/04/29 14:12:54;;;;;;;4.78;2.38;;;;;;;;;;6247091;23;20144;-62
2022/04/29 14:15:20;;;;;;;4.50;2.30;;;;;;;;;;6246524;23;20168;-62
2022/04/29 14:17:46;;;;;;;5.82;2.25;;;;;;;;;;6246701;23;20152;-62
2022/04/29 14:20:12;;;;;;;4.68;2.45;;;;;;;;;;6220074;23;20152;-63
2022/04/29 14:22:40;;;;;;;4.70;2.28;;;;;;;;;;6246423;23;20137;-63
2022/04/29 14:25:06;;;;;;;5.13;2.55;;;;;;;;;;6247078;23;20209;-64
2022/04/29 14:27:32;;;;;;;5.72;2.45;;;;;;;;;;6246472;23;20167;-63
2022/04/29 14:29:58;;;;;;;4.07;2.25;;;;;;;;;;6246600;23;20144;-63
2022/04/29 14:32:25;;;;;;;6.78;2.63;;;;;;;;;;6246544;23;20141;-63
2022/04/29 14:34:51;;;;;;;4.35;2.13;;;;;;;;;;6246524;23;20179;-63
2022/04/29 14:37:17;;;;;;;3.33;2.63;;;;;;;;;;6246494;23;20241;-63
2022/04/29 14:39:43;;;;;;;4.07;2.25;;;;;;;;;;6246674;23;20198;-63
2022/04/29 14:42:10;;;;;;;4.30;2.03;;;;;;;;;;6246224;23;20147;-63
2022/04/29 14:44:36;;;;;;;4.72;2.45;;;;;;;;;;6246302;23;20144;-64
2022/04/29 14:47:02;;;;;;;3.22;2.40;;;;;;;;;;6246289;23;20154;-64
2022/04/29 14:49:28;;;;;;;4.45;2.50;;;;;;;;;;6246432;23;20240;-64
2022/04/29 14:51:54;;;;;;;4.55;2.25;;;;;;;;;;6246912;23;20217;-64
2022/04/29 14:54:20;;;;;;;2.80;1.83;;;;;;;;;;6246515;23;20549;-64
2022/04/29 14:56:47;;;;;;;2.90;2.15;;;;;;;;;;6246634;23;20219;-64
2022/04/29 14:59:13;;;;;;;2.92;1.80;;;;;;;;;;6246400;23;20140;-64
2022/04/29 15:01:39;;;;;;;3.47;1.80;;;;;;;;;;6246453;23;20596;-64
2022/04/29 15:04:06;;;;;;;3.60;2.00;;;;;;;;;;6246402;23;20147;-63
2022/04/29 15:06:32;;;;;;;5.43;2.10;;;;;;;;;;6246563;23;20547;-63
2022/04/29 15:17:15;;;;;;;3.63;2.10;;;;;;;;;;6248397;23;20175;-64
2022/04/29 15:19:41;;;;;;;3.50;2.47;;;;;;;;;;6247884;23;20163;-64
2022/04/29 15:22:07;;;;;;;3.90;2.45;;;;;;;;;;6248269;23;20479;-64
2022/04/29 15:24:33;;;;;;;3.35;2.20;;;;;;;;;;6247990;23;20144;-64
2022/04/29 15:26:59;;;;;;;4.88;2.20;;;;;;;;;;6248185;23;20151;-63